createdAt,value
2022-07-29T00:00:28.681Z,63.42
2022-07-29T00:01:28.652Z,63.52
2022-07-29T00:02:28.702Z,63.62
2022-07-29T00:03:28.634Z,63.42
2022-07-29T00:04:28.702Z,63.02
2022-07-29T00:05:28.626Z,63.02
2022-07-29T00:06:28.608Z,62.62
2022-07-29T00:07:28.599Z,62.51
2022-07-29T00:08:28.595Z,62.41
2022-07-29T00:09:28.560Z,62.31
2022-07-29T00:10:28.557Z,62.71
2022-07-29T00:11:28.558Z,62.71
2022-07-29T00:12:28.533Z,62.21
2022-07-29T00:13:32.295Z,62.62
2022-07-29T00:14:28.526Z,62.82
2022-07-29T00:15:28.507Z,63.02
2022-07-29T00:16:28.563Z,62.92
2022-07-29T00:17:28.475Z,63.02
2022-07-29T00:18:28.472Z,63.12
2022-07-29T00:19:28.459Z,63.45
2022-07-29T00:20:28.492Z,63.45
2022-07-29T00:21:28.604Z,63.55
2022-07-29T00:22:28.429Z,64.36
2022-07-29T00:23:29.233Z,64.67
2022-07-29T00:24:28.397Z,64.36
2022-07-29T00:25:28.419Z,64.26
2022-07-29T00:26:28.456Z,64.97
2022-07-29T00:27:28.375Z,65.37
2022-07-29T00:28:28.366Z,65.47
2022-07-29T00:29:33.906Z,65.40
2022-07-29T00:30:29.353Z,65.50
2022-07-29T00:31:28.372Z,65.61
2022-07-29T00:32:28.315Z,66.11
2022-07-29T00:33:28.307Z,65.81
2022-07-29T00:34:28.293Z,65.91
2022-07-29T00:35:28.283Z,65.61
2022-07-29T00:36:28.270Z,65.81
2022-07-29T00:37:28.267Z,65.61
2022-07-29T00:38:28.254Z,66.21
2022-07-29T00:39:28.253Z,66.01
2022-07-29T00:40:28.234Z,66.11
2022-07-29T00:41:28.231Z,66.31
2022-07-29T00:42:28.201Z,66.41
2022-07-29T00:43:28.219Z,66.01
2022-07-29T00:44:28.199Z,66.01
2022-07-29T00:45:28.178Z,66.11
2022-07-29T00:46:28.206Z,66.21
2022-07-29T00:47:28.148Z,66.01
2022-07-29T00:48:28.145Z,66.01
2022-07-29T00:49:28.285Z,66.31
2022-07-29T00:50:28.119Z,66.21
2022-07-29T00:51:28.123Z,66.31
2022-07-29T00:52:28.137Z,66.31
2022-07-29T00:53:28.090Z,66.31
2022-07-29T00:54:28.080Z,65.91
2022-07-29T00:55:28.071Z,66.31
2022-07-29T00:56:28.062Z,66.01
2022-07-29T00:57:28.059Z,65.91
2022-07-29T00:58:28.034Z,66.41
2022-07-29T00:59:34.562Z,66.31
2022-07-29T01:00:29.062Z,66.01
2022-07-29T01:01:28.079Z,66.52
2022-07-29T01:02:28.050Z,66.21
2022-07-29T01:03:27.984Z,66.21
2022-07-29T01:04:27.952Z,65.91
2022-07-29T01:05:50.478Z,66.21
2022-07-29T01:06:28.961Z,65.61
2022-07-29T01:07:27.945Z,65.10
2022-07-29T01:08:27.936Z,65.30
2022-07-29T01:09:42.074Z,65.40
2022-07-29T01:10:28.919Z,65.40
2022-07-29T01:11:27.873Z,65.40
2022-07-29T01:12:27.880Z,65.91
2022-07-29T01:13:27.875Z,66.01
2022-07-29T01:14:27.854Z,65.61
2022-07-29T01:15:27.854Z,65.50
2022-07-29T01:16:27.902Z,65.70
2022-07-29T01:17:27.828Z,65.81
2022-07-29T01:18:27.802Z,65.40
2022-07-29T01:19:27.817Z,65.40
2022-07-29T01:20:31.594Z,65.50
2022-07-29T01:21:27.774Z,65.10
2022-07-29T01:22:27.771Z,65.30
2022-07-29T01:23:27.954Z,65.30
2022-07-29T01:24:27.763Z,65.20
2022-07-29T01:25:27.724Z,65.50
2022-07-29T01:26:27.706Z,65.50
2022-07-29T01:27:27.721Z,65.81
2022-07-29T01:28:27.722Z,65.81
2022-07-29T01:29:35.880Z,65.70
2022-07-29T01:30:28.677Z,65.40
2022-07-29T01:31:27.732Z,65.20
2022-07-29T01:32:28.711Z,65.00
2022-07-29T01:33:27.663Z,65.20
2022-07-29T01:34:27.629Z,64.29
2022-07-29T01:35:27.625Z,64.29
2022-07-29T01:36:27.601Z,64.59
2022-07-29T01:37:27.598Z,64.90
2022-07-29T01:38:27.589Z,65.70
2022-07-29T01:39:27.575Z,65.50
2022-07-29T01:40:27.564Z,67.52
2022-07-29T01:41:27.568Z,67.52
2022-07-29T01:42:27.531Z,67.72
2022-07-29T01:43:27.559Z,67.63
2022-07-29T01:44:27.529Z,67.02
2022-07-29T01:45:27.517Z,66.52
2022-07-29T01:46:27.552Z,66.72
2022-07-29T01:47:27.507Z,66.82
2022-07-29T01:48:27.484Z,67.22
2022-07-29T01:49:27.533Z,67.83
2022-07-29T01:50:27.456Z,68.26
2022-07-29T01:51:27.453Z,68.06
2022-07-29T01:52:27.423Z,68.67
2022-07-29T01:53:27.434Z,68.67
2022-07-29T01:54:27.566Z,69.07
2022-07-29T01:55:27.416Z,68.97
2022-07-29T01:56:27.390Z,68.67
2022-07-29T01:57:27.384Z,68.77
2022-07-29T01:58:27.354Z,68.97
2022-07-29T01:59:27.358Z,68.87
2022-07-29T02:00:27.327Z,68.57
2022-07-29T02:01:27.388Z,68.77
2022-07-29T02:02:27.329Z,69.78
2022-07-29T02:03:27.310Z,69.98
2022-07-29T02:04:30.020Z,70.22
2022-07-29T02:05:27.364Z,70.22
2022-07-29T02:06:27.290Z,70.42
2022-07-29T02:07:27.264Z,70.22
2022-07-29T02:08:27.287Z,70.02
2022-07-29T02:09:27.250Z,69.92
2022-07-29T02:10:27.223Z,69.71
2022-07-29T02:11:27.228Z,69.31
2022-07-29T02:12:27.195Z,68.97
2022-07-29T02:13:27.212Z,68.97
2022-07-29T02:14:27.187Z,68.26
2022-07-29T02:15:27.168Z,68.47
2022-07-29T02:16:27.273Z,67.66
2022-07-29T02:17:27.159Z,67.66
2022-07-29T02:18:27.141Z,67.96
2022-07-29T02:19:27.145Z,67.76
2022-07-29T02:20:27.123Z,67.35
2022-07-29T02:21:27.120Z,67.25
2022-07-29T02:22:27.095Z,66.85
2022-07-29T02:23:27.107Z,66.24
2022-07-29T02:24:27.069Z,66.75
2022-07-29T02:25:37.506Z,66.35
2022-07-29T02:26:28.063Z,66.35
2022-07-29T02:27:27.047Z,66.04
2022-07-29T02:28:27.023Z,66.31
2022-07-29T02:29:27.018Z,66.21
2022-07-29T02:30:27.026Z,66.21
2022-07-29T02:31:27.137Z,65.91
2022-07-29T02:32:26.992Z,66.01
2022-07-29T02:33:26.983Z,66.31
2022-07-29T02:34:26.949Z,66.52
2022-07-29T02:35:26.977Z,66.82
2022-07-29T02:36:26.946Z,67.02
2022-07-29T02:37:26.932Z,67.22
2022-07-29T02:38:26.935Z,67.12
2022-07-29T02:39:26.944Z,67.46
2022-07-29T02:40:26.896Z,67.55
2022-07-29T02:41:26.886Z,67.55
2022-07-29T02:42:26.877Z,67.66
2022-07-29T02:43:26.880Z,67.35
2022-07-29T02:44:31.263Z,67.15
2022-07-29T02:46:42.088Z,66.75
2022-07-29T02:47:44.075Z,66.24
2022-07-29T02:48:42.612Z,66.04
2022-07-29T02:49:42.804Z,66.04
2022-07-29T02:50:42.733Z,65.64
2022-07-29T02:51:44.600Z,65.64
2022-07-29T02:52:42.806Z,65.73
2022-07-29T02:53:42.656Z,65.50
2022-07-29T02:54:46.622Z,65.81
2022-07-29T02:55:43.495Z,65.91
2022-07-29T02:56:45.671Z,66.41
2022-07-29T02:59:04.546Z,67.22
2022-07-29T03:01:28.467Z,67.86
2022-07-29T03:02:07.202Z,67.96
2022-07-29T03:03:06.579Z,68.16
2022-07-29T03:04:11.272Z,68.47
2022-07-29T03:05:07.283Z,68.47
2022-07-29T03:06:07.366Z,68.57
2022-07-29T03:07:17.407Z,68.57
2022-07-29T03:08:07.919Z,68.77
2022-07-29T03:10:52.923Z,69.41
2022-07-29T03:13:21.269Z,69.81
2022-07-29T03:14:21.753Z,70.02
2022-07-29T03:15:21.074Z,69.81
2022-07-29T03:16:21.342Z,69.81
2022-07-29T03:17:21.155Z,69.51
2022-07-29T03:18:21.115Z,69.34
2022-07-29T03:19:20.995Z,69.44
2022-07-29T03:20:21.899Z,69.44
2022-07-29T03:21:21.012Z,69.44
2022-07-29T03:22:20.922Z,69.95
2022-07-29T03:23:20.979Z,69.65
2022-07-29T03:24:21.026Z,69.54
2022-07-29T03:25:21.860Z,69.34
2022-07-29T03:26:21.261Z,69.24
2022-07-29T03:27:21.080Z,69.14
2022-07-29T03:28:21.294Z,68.73
2022-07-29T03:29:20.909Z,68.23
2022-07-29T03:30:22.186Z,67.62
2022-07-29T03:31:21.048Z,67.29
2022-07-29T03:32:23.820Z,67.08
2022-07-29T03:33:21.143Z,66.88
2022-07-29T03:34:21.149Z,66.78
2022-07-29T03:35:21.330Z,66.75
2022-07-29T03:36:21.095Z,66.98
2022-07-29T03:37:21.158Z,67.46
2022-07-29T03:38:20.999Z,67.39
2022-07-29T03:39:21.394Z,67.49
2022-07-29T03:40:21.267Z,68.30
2022-07-29T03:41:22.460Z,68.60
2022-07-29T03:42:22.409Z,68.70
2022-07-29T03:43:21.145Z,68.80
2022-07-29T03:44:21.009Z,69.01
2022-07-29T03:45:20.992Z,69.31
2022-07-29T03:46:20.867Z,69.74
2022-07-29T03:47:21.481Z,69.65
2022-07-29T03:48:45.097Z,69.24
2022-07-29T03:49:24.533Z,69.85
2022-07-29T03:50:20.959Z,70.25
2022-07-29T03:51:31.547Z,70.15
2022-07-29T03:52:21.916Z,70.05
2022-07-29T03:53:21.363Z,70.15
2022-07-29T03:54:21.565Z,70.05
2022-07-29T03:55:20.771Z,70.25
2022-07-29T03:56:20.863Z,69.95
2022-07-29T03:57:29.749Z,69.34
2022-07-29T03:58:49.916Z,69.74
2022-07-29T03:59:30.342Z,69.44
2022-07-29T04:00:21.090Z,69.95
2022-07-29T04:01:25.642Z,69.54
2022-07-29T04:02:23.620Z,69.74
2022-07-29T04:03:20.680Z,69.54
2022-07-29T04:04:20.973Z,69.81
2022-07-29T04:05:21.277Z,69.92
2022-07-29T04:06:20.749Z,70.02
2022-07-29T04:07:20.961Z,70.52
2022-07-29T04:08:20.499Z,69.92
2022-07-29T04:09:21.099Z,69.61
2022-07-29T04:10:26.330Z,69.51
2022-07-29T04:11:22.288Z,69.85
2022-07-29T04:12:20.547Z,69.51
2022-07-29T04:13:20.560Z,69.95
2022-07-29T04:14:21.449Z,69.74
2022-07-29T04:15:21.553Z,69.74
2022-07-29T04:16:20.814Z,70.05
2022-07-29T04:17:20.944Z,69.85
2022-07-29T04:18:20.671Z,70.25
2022-07-29T04:19:20.996Z,70.05
2022-07-29T04:20:21.476Z,70.45
2022-07-29T04:21:20.906Z,71.16
2022-07-29T04:22:22.640Z,71.06
2022-07-29T04:23:20.809Z,70.96
2022-07-29T04:24:21.848Z,71.97
2022-07-29T04:25:20.690Z,71.67
2022-07-29T04:26:21.065Z,71.97
2022-07-29T04:27:21.095Z,72.17
2022-07-29T04:28:21.420Z,71.88
2022-07-29T04:29:20.273Z,72.28
2022-07-29T04:30:20.203Z,71.88
2022-07-29T04:31:25.533Z,72.08
2022-07-29T04:32:21.928Z,71.97
2022-07-29T04:33:20.217Z,71.67
2022-07-29T04:34:20.453Z,71.47
2022-07-29T04:35:20.091Z,70.45
2022-07-29T04:36:29.560Z,70.45
2022-07-29T04:37:21.110Z,69.92
2022-07-29T04:38:20.254Z,69.61
2022-07-29T04:39:23.054Z,69.71
2022-07-29T04:40:20.058Z,69.41
2022-07-29T04:41:20.784Z,68.90
2022-07-29T04:42:27.446Z,68.50
2022-07-29T04:43:23.286Z,68.67
2022-07-29T04:44:20.155Z,68.77
2022-07-29T04:45:22.544Z,68.87
2022-07-29T04:46:20.359Z,69.27
2022-07-29T04:47:20.487Z,69.27
2022-07-29T04:48:22.001Z,69.18
2022-07-29T04:49:21.176Z,69.68
2022-07-29T04:50:21.179Z,69.98
2022-07-29T04:51:20.025Z,69.68
2022-07-29T04:52:20.052Z,69.58
2022-07-29T04:53:19.949Z,69.81
2022-07-29T04:54:20.010Z,70.22
2022-07-29T04:55:19.896Z,70.12
2022-07-29T04:56:20.128Z,70.22
2022-07-29T04:57:19.967Z,70.52
2022-07-29T04:58:20.178Z,71.03
2022-07-29T04:59:19.920Z,71.13
2022-07-29T05:00:19.897Z,71.44
2022-07-29T05:01:20.009Z,71.64
2022-07-29T05:02:19.901Z,71.53
2022-07-29T05:03:20.202Z,71.53
2022-07-29T05:04:20.768Z,71.73
2022-07-29T05:05:19.842Z,71.44
2022-07-29T05:06:20.306Z,72.04
2022-07-29T05:07:20.207Z,72.44
2022-07-29T05:08:20.424Z,72.24
2022-07-29T05:09:20.951Z,72.14
2022-07-29T05:10:20.249Z,71.84
2022-07-29T05:11:22.422Z,72.24
2022-07-29T05:12:20.102Z,71.40
2022-07-29T05:13:20.088Z,71.00
2022-07-29T05:14:20.927Z,70.49
2022-07-29T05:15:20.216Z,70.49
2022-07-29T05:16:20.709Z,70.39
2022-07-29T05:17:21.010Z,69.68
2022-07-29T05:18:20.437Z,68.54
2022-07-29T05:19:20.751Z,68.94
2022-07-29T05:20:20.217Z,69.34
2022-07-29T05:21:20.122Z,68.84
2022-07-29T05:22:20.265Z,68.33
2022-07-29T05:23:19.907Z,69.31
2022-07-29T05:24:20.337Z,68.51
2022-07-29T05:25:19.912Z,67.90
2022-07-29T05:26:20.282Z,68.30
2022-07-29T05:27:19.792Z,68.17
2022-07-29T05:28:20.913Z,67.97
2022-07-29T05:29:43.259Z,67.46
2022-07-29T05:30:21.081Z,67.13
2022-07-29T05:31:20.044Z,67.23
2022-07-29T05:32:20.080Z,67.19
2022-07-29T05:33:35.400Z,65.68
2022-07-29T05:34:21.515Z,65.18
2022-07-29T05:35:19.973Z,65.68
2022-07-29T05:36:21.785Z,65.65
2022-07-29T05:37:19.523Z,65.35
2022-07-29T05:38:20.134Z,65.25
2022-07-29T05:39:19.765Z,64.34
2022-07-29T05:40:26.374Z,64.04
2022-07-29T05:41:19.372Z,64.51
2022-07-29T05:42:19.342Z,64.41
2022-07-29T05:43:19.323Z,64.41
2022-07-29T05:44:19.528Z,64.81
2022-07-29T05:45:19.319Z,64.21
2022-07-29T05:46:19.360Z,64.81
2022-07-29T05:47:19.283Z,64.01
2022-07-29T05:48:19.274Z,64.41
2022-07-29T05:49:26.997Z,65.22
2022-07-29T05:50:20.253Z,65.39
2022-07-29T05:51:19.282Z,65.29
2022-07-29T05:52:19.237Z,64.89
2022-07-29T05:53:20.509Z,64.18
2022-07-29T05:54:19.425Z,64.38
2022-07-29T05:55:19.204Z,64.07
2022-07-29T05:56:19.195Z,63.87
2022-07-29T05:57:19.174Z,63.87
2022-07-29T05:58:19.230Z,63.67
2022-07-29T05:59:19.150Z,63.27
2022-07-29T06:00:19.156Z,63.37
2022-07-29T06:01:19.166Z,63.57
2022-07-29T06:02:19.120Z,62.84
2022-07-29T06:03:19.126Z,62.84
2022-07-29T06:04:19.731Z,63.14
2022-07-29T06:05:19.082Z,63.65
2022-07-29T06:06:19.068Z,63.45
2022-07-29T06:07:19.044Z,63.45
2022-07-29T06:08:19.077Z,62.74
2022-07-29T06:09:19.056Z,64.75
2022-07-29T06:10:19.052Z,62.30
2022-07-29T06:11:19.027Z,62.71
2022-07-29T06:12:19.006Z,61.50
2022-07-29T06:13:18.995Z,62.38
2022-07-29T06:14:19.343Z,61.77
2022-07-29T06:15:19.013Z,61.77
2022-07-29T06:16:30.348Z,60.87
2022-07-29T06:17:19.963Z,61.37
2022-07-29T06:18:18.958Z,61.67
2022-07-29T06:19:18.938Z,61.07
2022-07-29T06:20:18.944Z,60.77
2022-07-29T06:21:19.907Z,61.67
2022-07-29T06:22:18.900Z,61.47
2022-07-29T06:23:18.896Z,60.87
2022-07-29T06:24:19.419Z,60.64
2022-07-29T06:25:18.914Z,60.33
2022-07-29T06:26:18.865Z,60.74
2022-07-29T06:27:19.850Z,60.53
2022-07-29T06:28:18.867Z,60.84
2022-07-29T06:29:18.833Z,60.44
2022-07-29T06:30:18.835Z,60.36
2022-07-29T06:31:18.869Z,60.44
2022-07-29T06:32:18.998Z,60.94
2022-07-29T06:33:18.768Z,61.34
2022-07-29T06:34:19.234Z,60.84
2022-07-29T06:35:39.013Z,61.24
2022-07-29T06:36:19.750Z,60.13
2022-07-29T06:37:18.742Z,60.64
2022-07-29T06:38:31.276Z,60.31
2022-07-29T06:39:19.733Z,60.21
2022-07-29T06:40:18.818Z,60.31
2022-07-29T06:41:18.705Z,60.51
2022-07-29T06:42:18.690Z,60.51
2022-07-29T06:43:18.678Z,60.11
2022-07-29T06:44:19.220Z,61.11
2022-07-29T06:45:18.656Z,60.28
2022-07-29T06:46:18.719Z,60.28
2022-07-29T06:47:18.628Z,60.28
2022-07-29T06:48:18.630Z,60.48
2022-07-29T06:49:18.659Z,60.78
2022-07-29T06:50:18.615Z,60.15
2022-07-29T06:51:23.373Z,59.85
2022-07-29T06:52:19.588Z,59.95
2022-07-29T06:53:18.583Z,60.25
2022-07-29T06:54:18.758Z,59.45
2022-07-29T06:55:25.112Z,59.65
2022-07-29T06:56:19.546Z,58.64
2022-07-29T06:57:18.612Z,58.54
2022-07-29T06:58:18.526Z,58.81
2022-07-29T06:59:18.522Z,58.92
2022-07-29T07:00:18.496Z,57.61
2022-07-29T07:01:18.499Z,58.22
2022-07-29T07:02:18.513Z,59.12
2022-07-29T07:03:18.500Z,58.72
2022-07-29T07:04:18.848Z,58.72
2022-07-29T07:05:18.444Z,58.51
2022-07-29T07:06:18.452Z,58.79
2022-07-29T07:07:18.425Z,58.69
2022-07-29T07:08:18.413Z,58.39
2022-07-29T07:09:18.417Z,58.18
2022-07-29T07:10:18.392Z,57.56
2022-07-29T07:11:18.383Z,57.15
2022-07-29T07:12:18.371Z,56.96
2022-07-29T07:13:18.382Z,57.56
2022-07-29T07:14:18.696Z,57.66
2022-07-29T07:15:18.344Z,57.03
2022-07-29T07:16:18.395Z,57.83
2022-07-29T07:17:18.306Z,56.83
2022-07-29T07:18:18.320Z,57.33
2022-07-29T07:19:18.293Z,57.13
2022-07-29T07:20:18.321Z,56.73
2022-07-29T07:21:19.070Z,56.73
2022-07-29T07:22:18.262Z,56.63
2022-07-29T07:23:18.241Z,57.40
2022-07-29T07:24:18.576Z,56.80
2022-07-29T07:25:18.239Z,57.70
2022-07-29T07:26:18.221Z,57.00
2022-07-29T07:27:18.212Z,56.70
2022-07-29T07:28:18.202Z,56.67
2022-07-29T07:29:18.178Z,56.17
2022-07-29T07:30:18.199Z,55.77
2022-07-29T07:31:18.215Z,56.37
2022-07-29T07:32:18.198Z,56.80
2022-07-29T07:33:18.162Z,56.07
2022-07-29T07:34:28.174Z,56.27
2022-07-29T07:35:19.128Z,56.37
2022-07-29T07:36:18.106Z,56.77
2022-07-29T07:37:18.097Z,56.67
2022-07-29T07:38:18.078Z,57.07
2022-07-29T07:39:18.079Z,56.48
2022-07-29T07:40:18.679Z,55.98
2022-07-29T07:41:18.047Z,54.87
2022-07-29T07:42:18.053Z,55.07
2022-07-29T07:43:18.034Z,54.57
2022-07-29T07:44:18.296Z,54.67
2022-07-29T07:45:18.016Z,54.77
2022-07-29T07:46:18.027Z,54.77
2022-07-29T07:47:18.040Z,54.47
2022-07-29T07:48:17.989Z,54.37
2022-07-29T07:49:18.021Z,54.24
2022-07-29T07:50:19.300Z,54.55
2022-07-29T07:51:17.934Z,54.44
2022-07-29T07:52:17.933Z,53.85
2022-07-29T07:53:17.922Z,53.62
2022-07-29T07:54:18.707Z,54.62
2022-07-29T07:55:17.923Z,54.02
2022-07-29T07:56:17.909Z,53.09
2022-07-29T07:57:17.890Z,53.49
2022-07-29T07:58:17.875Z,54.10
2022-07-29T07:59:17.861Z,53.37
2022-07-29T08:00:17.874Z,52.67
2022-07-29T08:01:17.891Z,52.57
2022-07-29T08:02:17.880Z,52.47
2022-07-29T08:03:17.825Z,53.37
2022-07-29T08:04:22.089Z,53.59
2022-07-29T08:05:18.812Z,53.77
2022-07-29T08:06:17.779Z,52.47
2022-07-29T08:07:17.768Z,52.07
2022-07-29T08:08:17.762Z,51.77
2022-07-29T08:09:28.581Z,51.87
2022-07-29T08:10:18.732Z,52.07
2022-07-29T08:11:17.731Z,51.67
2022-07-29T08:12:17.720Z,52.37
2022-07-29T08:13:17.711Z,51.97
2022-07-29T08:14:18.127Z,52.37
2022-07-29T08:15:17.699Z,52.94
2022-07-29T08:16:17.742Z,52.94
2022-07-29T08:17:17.671Z,52.74
2022-07-29T08:18:17.662Z,52.94
2022-07-29T08:19:17.677Z,52.64
2022-07-29T08:20:17.894Z,53.04
2022-07-29T08:21:17.640Z,52.34
2022-07-29T08:22:17.628Z,52.34
2022-07-29T08:23:17.628Z,52.55
2022-07-29T08:24:17.615Z,52.25
2022-07-29T08:25:17.600Z,51.82
2022-07-29T08:26:17.568Z,52.62
2022-07-29T08:27:41.737Z,52.32
2022-07-29T08:28:18.556Z,53.22
2022-07-29T08:29:20.058Z,52.62
2022-07-29T08:30:17.526Z,52.52
2022-07-29T08:31:17.597Z,52.82
2022-07-29T08:32:31.113Z,52.99
2022-07-29T08:33:18.497Z,53.49
2022-07-29T08:34:17.503Z,53.29
2022-07-29T08:35:17.735Z,52.69
2022-07-29T08:36:17.471Z,52.00
2022-07-29T08:37:17.463Z,51.89
2022-07-29T08:38:17.452Z,51.50
2022-07-29T08:39:17.491Z,51.50
2022-07-29T08:40:17.428Z,51.70
2022-07-29T08:41:17.408Z,51.70
2022-07-29T08:42:17.404Z,51.59
2022-07-29T08:43:17.401Z,52.29
2022-07-29T08:44:17.382Z,51.57
2022-07-29T08:45:18.412Z,51.07
2022-07-29T08:46:17.428Z,50.55
2022-07-29T08:47:17.365Z,50.13
2022-07-29T08:48:17.322Z,49.83
2022-07-29T08:49:17.383Z,49.51
2022-07-29T08:50:17.324Z,48.50
2022-07-29T08:51:17.314Z,49.10
2022-07-29T08:52:17.300Z,49.03
2022-07-29T08:53:17.284Z,50.23
2022-07-29T08:54:17.287Z,48.91
2022-07-29T08:55:21.433Z,49.01
2022-07-29T08:56:17.275Z,48.38
2022-07-29T08:57:17.252Z,48.26
2022-07-29T08:58:17.220Z,47.77
2022-07-29T08:59:17.222Z,48.07
2022-07-29T09:00:17.225Z,47.84
2022-07-29T09:01:17.251Z,47.94
2022-07-29T09:02:17.214Z,47.05
2022-07-29T09:03:17.225Z,48.44
2022-07-29T09:04:17.181Z,47.77
2022-07-29T09:05:17.178Z,47.25
2022-07-29T09:06:17.191Z,47.25
2022-07-29T09:07:17.138Z,47.25
2022-07-29T09:08:17.134Z,47.14
2022-07-29T09:09:17.120Z,47.64
2022-07-29T09:10:17.131Z,47.32
2022-07-29T09:11:17.089Z,48.32
2022-07-29T09:12:29.052Z,47.89
2022-07-29T09:13:18.077Z,47.70
2022-07-29T09:14:17.060Z,46.31
2022-07-29T09:15:17.051Z,46.50
2022-07-29T09:16:37.230Z,46.20
2022-07-29T09:17:18.087Z,46.11
2022-07-29T09:18:19.600Z,46.41
2022-07-29T09:19:18.011Z,46.50
2022-07-29T09:20:16.984Z,46.80
2022-07-29T09:21:17.008Z,46.98
2022-07-29T09:22:16.984Z,45.68
2022-07-29T09:23:24.270Z,46.98
2022-07-29T09:24:17.959Z,46.48
2022-07-29T09:25:16.958Z,46.66
2022-07-29T09:26:16.949Z,45.39
2022-07-29T09:27:16.936Z,45.89
2022-07-29T09:28:16.916Z,45.68
2022-07-29T09:29:16.912Z,45.47
2022-07-29T09:30:30.338Z,45.76
2022-07-29T09:31:17.902Z,45.37
2022-07-29T09:32:16.886Z,44.15
2022-07-29T09:33:16.865Z,44.45
2022-07-29T09:34:16.861Z,45.34
2022-07-29T09:35:16.848Z,44.15
2022-07-29T09:36:16.840Z,45.34
2022-07-29T09:37:17.024Z,44.45
2022-07-29T09:38:16.818Z,45.15
2022-07-29T09:39:17.840Z,45.52
2022-07-29T09:40:16.929Z,44.43
2022-07-29T09:41:16.805Z,43.74
2022-07-29T09:42:16.765Z,43.82
2022-07-29T09:43:16.774Z,43.82
2022-07-29T09:44:16.743Z,43.12
2022-07-29T09:45:16.740Z,43.34
2022-07-29T09:46:16.821Z,43.84
2022-07-29T09:47:16.740Z,43.93
2022-07-29T09:48:16.709Z,43.44
2022-07-29T09:49:16.824Z,43.04
2022-07-29T09:50:16.697Z,44.55
2022-07-29T09:51:20.096Z,43.54
2022-07-29T09:52:16.663Z,43.04
2022-07-29T09:53:16.653Z,44.83
2022-07-29T09:54:16.641Z,44.11
2022-07-29T09:55:18.092Z,43.82
2022-07-29T09:56:16.623Z,43.49
2022-07-29T09:57:16.604Z,43.89
2022-07-29T09:58:16.599Z,42.98
2022-07-29T09:59:16.594Z,42.98
2022-07-29T10:00:16.577Z,42.38
2022-07-29T10:01:16.718Z,41.87
2022-07-29T10:02:21.711Z,42.46
2022-07-29T10:03:17.621Z,43.26
2022-07-29T10:04:16.527Z,42.44
2022-07-29T10:05:16.536Z,42.05
2022-07-29T10:06:16.517Z,41.46
2022-07-29T10:07:16.503Z,42.25
2022-07-29T10:08:16.572Z,42.22
2022-07-29T10:09:16.492Z,40.74
2022-07-29T10:10:16.481Z,41.55
2022-07-29T10:11:16.473Z,42.44
2022-07-29T10:12:16.462Z,42.14
2022-07-29T10:13:16.766Z,41.57
2022-07-29T10:14:16.474Z,42.07
2022-07-29T10:15:16.424Z,42.27
2022-07-29T10:16:16.476Z,41.18
2022-07-29T10:17:16.429Z,42.46
2022-07-29T10:18:16.398Z,43.08
2022-07-29T10:19:16.392Z,42.68
2022-07-29T10:20:16.612Z,42.29
2022-07-29T10:21:22.560Z,41.89
2022-07-29T10:22:36.853Z,42.60
2022-07-29T10:23:17.355Z,43.89
2022-07-29T10:24:16.318Z,43.79
2022-07-29T10:25:16.323Z,43.52
2022-07-29T10:26:16.310Z,42.92
2022-07-29T10:27:16.298Z,43.52
2022-07-29T10:28:16.994Z,43.71
2022-07-29T10:29:16.283Z,43.82
2022-07-29T10:30:16.265Z,43.71
2022-07-29T10:31:16.324Z,43.62
2022-07-29T10:32:16.251Z,43.71
2022-07-29T10:33:16.242Z,43.22
2022-07-29T10:34:16.228Z,43.52
2022-07-29T10:35:16.235Z,43.00
2022-07-29T10:36:16.211Z,44.49
2022-07-29T10:37:16.197Z,43.18
2022-07-29T10:39:18.386Z,43.04
2022-07-29T10:40:16.357Z,42.44
2022-07-29T10:41:19.302Z,41.71
2022-07-29T10:42:19.888Z,41.59
2022-07-29T10:43:16.331Z,41.89
2022-07-29T10:44:16.361Z,40.53
2022-07-29T10:45:16.297Z,40.53
2022-07-29T10:46:16.308Z,40.84
2022-07-29T10:47:16.300Z,40.76
2022-07-29T10:48:16.282Z,41.06
2022-07-29T10:49:16.372Z,41.57
2022-07-29T10:50:17.427Z,41.87
2022-07-29T10:51:16.235Z,40.88
2022-07-29T10:52:16.227Z,41.18
2022-07-29T10:53:16.232Z,41.39
2022-07-29T10:54:16.199Z,41.77
2022-07-29T10:55:16.225Z,41.55
2022-07-29T10:56:16.220Z,41.16
2022-07-29T10:57:16.188Z,39.95
2022-07-29T10:58:16.184Z,40.42
2022-07-29T10:59:16.163Z,39.42
2022-07-29T11:00:17.084Z,39.89
2022-07-29T11:01:17.134Z,39.38
2022-07-29T11:02:41.074Z,38.77
2022-07-29T11:03:17.194Z,38.56
2022-07-29T11:04:16.114Z,38.16
2022-07-29T11:05:16.110Z,37.95
2022-07-29T11:06:16.101Z,37.76
2022-07-29T11:07:16.088Z,36.86
2022-07-29T11:08:20.468Z,37.15
2022-07-29T11:09:16.060Z,36.66
2022-07-29T11:10:16.165Z,36.36
2022-07-29T11:11:17.413Z,36.78
2022-07-29T11:12:16.067Z,36.88
2022-07-29T11:13:16.034Z,37.98
2022-07-29T11:14:16.015Z,38.49
2022-07-29T11:15:15.997Z,38.71
2022-07-29T11:16:16.380Z,38.61
2022-07-29T11:17:16.476Z,38.53
2022-07-29T11:18:17.541Z,39.52
2022-07-29T11:19:15.955Z,40.11
2022-07-29T11:20:17.076Z,39.91
2022-07-29T11:21:16.008Z,39.42
2022-07-29T11:22:17.318Z,40.21
2022-07-29T11:23:15.925Z,40.01
2022-07-29T11:24:28.962Z,40.42
2022-07-29T11:25:17.143Z,39.83
2022-07-29T11:26:18.639Z,40.23
2022-07-29T11:27:18.088Z,40.90
2022-07-29T11:28:18.512Z,40.62
2022-07-29T11:29:16.854Z,40.03
2022-07-29T11:30:15.872Z,39.73
2022-07-29T11:31:15.840Z,38.17
2022-07-29T11:32:18.316Z,39.56
2022-07-29T11:33:16.850Z,39.75
2022-07-29T11:34:16.811Z,40.74
2022-07-29T11:35:17.303Z,40.34
2022-07-29T11:36:16.926Z,40.05
2022-07-29T11:37:15.794Z,40.74
2022-07-29T11:38:15.751Z,41.14
2022-07-29T11:39:15.751Z,41.04
2022-07-29T11:40:15.761Z,40.74
2022-07-29T11:41:16.017Z,41.55
2022-07-29T11:42:15.845Z,41.55
2022-07-29T11:43:15.707Z,40.96
2022-07-29T11:44:15.712Z,40.96
2022-07-29T11:45:43.551Z,40.64
2022-07-29T11:46:16.698Z,39.75
2022-07-29T11:47:16.730Z,38.86
2022-07-29T11:48:32.208Z,38.59
2022-07-29T11:49:16.695Z,38.49
2022-07-29T11:50:15.637Z,38.47
2022-07-29T11:51:15.637Z,38.47
2022-07-29T11:52:15.653Z,37.98
2022-07-29T11:53:15.608Z,37.87
2022-07-29T11:54:16.053Z,37.56
2022-07-29T11:55:15.676Z,37.76
2022-07-29T11:57:16.635Z,37.21
2022-07-29T11:58:15.594Z,37.90
2022-07-29T11:59:15.568Z,38.00
2022-07-29T12:00:15.595Z,37.41
2022-07-29T12:01:15.546Z,37.21
2022-07-29T12:02:37.413Z,37.62
2022-07-29T12:03:16.574Z,37.30
2022-07-29T12:04:15.509Z,36.11
2022-07-29T12:06:18.185Z,37.07
2022-07-29T12:07:02.572Z,36.38
2022-07-29T12:07:15.834Z,35.28
2022-07-29T12:08:15.465Z,36.07
2022-07-29T12:09:15.507Z,35.56
2022-07-29T12:10:19.515Z,34.87
2022-07-29T12:11:15.454Z,34.87
2022-07-29T12:12:15.448Z,35.27
2022-07-29T12:13:15.411Z,34.54
2022-07-29T12:14:15.395Z,34.63
2022-07-29T12:15:15.479Z,35.10
2022-07-29T12:16:15.463Z,34.51
2022-07-29T12:17:15.406Z,33.80
2022-07-29T12:18:15.361Z,33.80
2022-07-29T12:19:15.351Z,34.58
2022-07-29T12:20:15.327Z,34.67
2022-07-29T12:21:16.317Z,33.82
2022-07-29T12:22:15.356Z,35.31
2022-07-29T12:23:16.178Z,34.53
2022-07-29T12:24:15.288Z,35.74
2022-07-29T12:25:32.809Z,35.86
2022-07-29T12:26:25.620Z,35.77
2022-07-29T12:27:16.373Z,36.57
2022-07-29T12:28:15.282Z,35.97
2022-07-29T12:29:20.354Z,36.25
2022-07-29T12:30:17.397Z,36.05
2022-07-29T12:31:44.102Z,36.15
2022-07-29T12:32:19.985Z,36.15
2022-07-29T12:33:15.218Z,36.55
2022-07-29T12:34:15.184Z,36.48
2022-07-29T12:35:15.199Z,36.46
2022-07-29T12:36:17.920Z,37.47
2022-07-29T12:37:15.183Z,37.39
2022-07-29T12:38:15.152Z,36.99
2022-07-29T12:39:15.145Z,37.57
2022-07-29T12:40:15.154Z,37.05
2022-07-29T12:41:15.126Z,36.23
2022-07-29T12:42:15.193Z,35.63
2022-07-29T12:43:15.423Z,35.71
2022-07-29T12:44:15.112Z,35.71
2022-07-29T12:45:15.146Z,35.31
2022-07-29T12:46:15.224Z,35.61
2022-07-29T12:47:15.143Z,35.90
2022-07-29T12:48:15.074Z,34.82
2022-07-29T12:49:15.111Z,35.51
2022-07-29T12:50:15.031Z,36.79
2022-07-29T12:51:15.034Z,35.39
2022-07-29T12:52:15.029Z,34.70
2022-07-29T12:53:15.040Z,34.90
2022-07-29T12:54:15.121Z,35.30
2022-07-29T12:55:15.022Z,35.21
2022-07-29T12:56:33.063Z,35.30
2022-07-29T12:57:20.250Z,35.08
2022-07-29T12:58:14.976Z,34.89
2022-07-29T12:59:15.048Z,34.89
2022-07-29T13:00:14.954Z,34.10
2022-07-29T13:01:16.826Z,34.10